Flight Track Log - Related Links

Times and Time Zones

All times are in EDT time to prevent confusion due to time zone crossing. See the JZA8349 flight status page for this flight to view local times or setup timezone preferences in your user account.

Time Position Orientation Groundspeed Altitude Reporting Facility
EDT Latitude Longitude Course Direction KTS MPH feet Rate Location/Type
Sun 08:58:17 PM 49.9000 -97.2333 360° North 150 173 1,400  Level Winnipeg Center
Sun 08:59:17 PM 49.9500 -97.2333 360° North 170 196 3,600 1,950 Climbing Winnipeg Center
Sun 09:00:17 PM 49.9667 -97.3333 285° West 270 311 5,300 2,650 Climbing Winnipeg Center
Sun 09:01:17 PM 49.9833 -97.4667 281° West 260 299 8,900 3,000 Climbing Winnipeg Center
Sun 09:02:17 PM 49.9833 -97.5667 270° West 270 311 11,300 2,450 Climbing Winnipeg Center
Sun 09:03:17 PM 50.0000 -97.6667 285° West 270 311 13,800 2,400 Climbing Winnipeg Center
Sun 09:04:17 PM 50.0000 -97.8000 270° West 280 322 16,100 2,150 Climbing Winnipeg Center
Sun 09:05:17 PM 50.0167 -97.9333 281° West 280 322 18,100 1,950 Climbing Winnipeg Center
Sun 09:06:17 PM 50.0167 -98.0667 270° West 290 334 20,000 1,700 Climbing Winnipeg Center
Sun 09:07:17 PM 50.0167 -98.1667 270° West 290 334 21,500 1,550 Climbing Winnipeg Center
Sun 09:08:17 PM 50.0333 -98.3000 281° West 290 334 23,100 1,400 Climbing Winnipeg Center
Sun 09:09:17 PM 50.0500 -98.4333 281° West 290 334 24,300 1,200 Climbing Winnipeg Center
Sun 09:10:17 PM 50.0500 -98.5500 270° West 300 345 25,500 1,100 Climbing Winnipeg Center
Sun 09:11:17 PM 50.0667 -98.6833 281° West 300 345 26,500 1,000 Climbing Winnipeg Center
Sun 09:12:17 PM 50.0833 -98.8167 281° West 310 357 27,500 950 Climbing Winnipeg Center
Sun 09:13:17 PM 50.0833 -98.9500 270° West 310 357 28,400 900 Climbing Winnipeg Center
Sun 09:14:17 PM 50.1000 -99.0833 281° West 310 357 29,300 800 Climbing Winnipeg Center
Sun 09:15:17 PM 50.1000 -99.2333 270° West 310 357 30,000 650 Climbing Winnipeg Center
Sun 09:16:17 PM 50.1167 -99.3667 281° West 320 368 30,600 550 Climbing Winnipeg Center
Sun 09:17:17 PM 50.1167 -99.5000 270° West 320 368 31,100 550 Climbing Winnipeg Center
Sun 09:18:17 PM 50.1333 -99.6333 281° West 320 368 31,700 450 Climbing Winnipeg Center
Sun 09:19:17 PM 50.1500 -99.7833 280° West 330 380 32,000 150 Climbing Winnipeg Center
Sun 09:20:17 PM 50.1667 -99.9167 281° West 330 380 32,000  Level Winnipeg Center
Sun 09:21:17 PM 50.1667 -100.0667 270° West 350 403 32,000  Level Winnipeg Center
Sun 09:22:17 PM 50.1833 -100.2333 279° West 350 403 32,000  Level Winnipeg Center
Sun 09:23:17 PM 50.2000 -100.3833 280° West 360 414 32,000  Level Winnipeg Center
Sun 09:24:17 PM 50.2167 -100.5500 279° West 370 426 32,000  Level Winnipeg Center
Sun 09:25:17 PM 50.2167 -100.7000 270° West 370 426 32,000  Level Winnipeg Center
Sun 09:26:17 PM 50.2333 -100.8667 279° West 370 426 32,000  Level Winnipeg Center
Sun 09:27:17 PM 50.2500 -101.0167 280° West 370 426 32,000  Level Winnipeg Center
Sun 09:28:17 PM 50.2500 -101.1833 270° West 370 426 32,000  Level Winnipeg Center
Sun 09:29:17 PM 50.2667 -101.3333 280° West 380 437 32,000  Level Winnipeg Center
Sun 09:30:17 PM 50.2833 -101.5000 279° West 370 426 32,000  Level Winnipeg Center
Sun 09:31:17 PM 50.2833 -101.6833 270° West 380 437 32,000  Level Winnipeg Center
Sun 09:32:17 PM 50.3000 -101.8333 280° West 380 437 32,000  Level Winnipeg Center
Sun 09:33:17 PM 50.3000 -102.0000 270° West 380 437 32,000  Level Winnipeg Center
Sun 09:34:17 PM 50.3167 -102.1500 280° West 380 437 32,000  Level Winnipeg Center
Sun 09:35:17 PM 50.3167 -102.3333 270° West 370 426 32,000  Level Winnipeg Center
Sun 09:36:17 PM 50.3167 -102.5000 270° West 370 426 32,000  Level Winnipeg Center
Sun 09:37:17 PM 50.3167 -102.6500 270° West 370 426 32,000 -400 Level Winnipeg Center
Sun 09:38:17 PM 50.3167 -102.8167 270° West 380 437 31,200 -900 Descending Winnipeg Center
Sun 09:39:17 PM 50.3167 -103.0000 270° West 390 449 30,200 -2,000 Descending Winnipeg Center
Sun 09:40:17 PM 50.3167 -103.1833 270° West 400 460 27,200 -3,050 Descending Winnipeg Center
Sun 09:41:17 PM 50.3000 -103.3333 260° West 390 449 24,100 -3,050 Descending Winnipeg Center
Sun 09:42:17 PM 50.3167 -103.5000 279° West 380 437 21,100 -3,100 Descending Winnipeg Center
Sun 09:43:17 PM 50.3000 -103.6500 260° West 360 414 17,900 -3,300 Descending Winnipeg Center
Sun 09:44:17 PM 50.3000 -103.8167 270° West 350 403 14,500 -3,100 Descending Winnipeg Center
Sun 09:45:17 PM 50.3000 -103.9333 270° West 330 380 11,700 -2,000 Descending Winnipeg Center
Sun 09:46:17 PM 50.3000 -104.0667 270° West 280 322 10,500 -1,600 Descending Winnipeg Center
Sun 09:47:17 PM 50.2833 -104.2000 259° West 260 299 8,500 -2,000 Descending Winnipeg Center
Sun 09:48:17 PM 50.2833 -104.3000 270° West 270 311 6,500 -1,800 Descending Winnipeg Center
Sun 09:49:17 PM 50.2833 -104.4167 270° West 250 288 4,900 -1,200 Descending Winnipeg Center
Sun 09:50:17 PM 50.3000 -104.5167 285° West 210 242 4,100 -550 Descending Winnipeg Center
Sun 09:51:17 PM 50.3333 -104.5833 308° West 190 219 3,800 -350 Descending Winnipeg Center
Sun 09:52:17 PM 50.3667 -104.6000 342° North 170 196 3,400 -750 Descending Winnipeg Center
Sun 09:53:17 PM 50.3833 -104.6667 291° West 140 161 2,300 -750 Descending Winnipeg Center
Sun 09:54:17 PM 50.4167 -104.6667 360° North 50 58 1,900 -400 Descending Winnipeg Center

Login

Don't have an account? Register now (free) for customized features, flight alerts, and more!